sensor_id;sensor_type;location;lat;lon;timestamp;P1;durP1;ratioP1;P2;durP2;ratioP2
13799;SDS011;6971;50.028;9.258;2023-08-01T00:04:32;10.10;;;6.93;;
13799;SDS011;6971;50.028;9.258;2023-08-01T00:09:33;7.90;;;6.30;;
13799;SDS011;6971;50.028;9.258;2023-08-01T00:14:33;12.70;;;7.20;;
13799;SDS011;6971;50.028;9.258;2023-08-01T00:19:36;9.60;;;6.70;;
13799;SDS011;6971;50.028;9.258;2023-08-01T00:24:37;13.43;;;7.83;;
13799;SDS011;6971;50.028;9.258;2023-08-01T00:29:38;11.83;;;7.87;;
13799;SDS011;6971;50.028;9.258;2023-08-01T00:34:39;14.40;;;7.03;;
13799;SDS011;6971;50.028;9.258;2023-08-01T00:39:40;11.73;;;7.60;;
13799;SDS011;6971;50.028;9.258;2023-08-01T00:44:41;15.73;;;8.40;;
13799;SDS011;6971;50.028;9.258;2023-08-01T00:49:42;10.70;;;6.73;;
13799;SDS011;6971;50.028;9.258;2023-08-01T00:54:43;11.13;;;7.37;;
13799;SDS011;6971;50.028;9.258;2023-08-01T00:59:44;9.83;;;6.43;;
13799;SDS011;6971;50.028;9.258;2023-08-01T01:04:45;8.90;;;6.70;;
13799;SDS011;6971;50.028;9.258;2023-08-01T01:09:47;8.33;;;6.30;;
13799;SDS011;6971;50.028;9.258;2023-08-01T01:14:48;8.57;;;7.43;;
13799;SDS011;6971;50.028;9.258;2023-08-01T01:19:49;12.87;;;7.20;;
13799;SDS011;6971;50.028;9.258;2023-08-01T01:24:50;9.33;;;6.57;;
13799;SDS011;6971;50.028;9.258;2023-08-01T01:29:54;10.80;;;7.20;;
13799;SDS011;6971;50.028;9.258;2023-08-01T01:34:55;13.90;;;8.37;;
13799;SDS011;6971;50.028;9.258;2023-08-01T01:39:56;11.07;;;7.50;;
13799;SDS011;6971;50.028;9.258;2023-08-01T01:44:57;9.07;;;6.50;;
13799;SDS011;6971;50.028;9.258;2023-08-01T01:49:58;9.13;;;7.13;;
13799;SDS011;6971;50.028;9.258;2023-08-01T01:54:59;10.30;;;6.97;;
13799;SDS011;6971;50.028;9.258;2023-08-01T02:00:00;10.00;;;6.77;;
13799;SDS011;6971;50.028;9.258;2023-08-01T02:05:00;9.47;;;6.80;;
13799;SDS011;6971;50.028;9.258;2023-08-01T02:10:02;11.00;;;6.87;;
13799;SDS011;6971;50.028;9.258;2023-08-01T02:15:03;12.97;;;6.60;;
13799;SDS011;6971;50.028;9.258;2023-08-01T02:20:04;9.57;;;6.40;;
13799;SDS011;6971;50.028;9.258;2023-08-01T02:25:06;13.10;;;7.30;;
13799;SDS011;6971;50.028;9.258;2023-08-01T02:30:07;10.03;;;7.10;;
13799;SDS011;6971;50.028;9.258;2023-08-01T02:35:09;16.03;;;7.30;;
13799;SDS011;6971;50.028;9.258;2023-08-01T02:40:10;11.43;;;7.10;;
13799;SDS011;6971;50.028;9.258;2023-08-01T02:45:11;11.30;;;7.30;;
13799;SDS011;6971;50.028;9.258;2023-08-01T02:50:13;8.67;;;6.20;;
13799;SDS011;6971;50.028;9.258;2023-08-01T02:55:14;9.77;;;6.73;;
13799;SDS011;6971;50.028;9.258;2023-08-01T03:00:15;11.63;;;6.77;;
13799;SDS011;6971;50.028;9.258;2023-08-01T03:05:17;12.13;;;6.27;;
13799;SDS011;6971;50.028;9.258;2023-08-01T03:10:18;10.93;;;6.87;;
13799;SDS011;6971;50.028;9.258;2023-08-01T03:15:19;8.97;;;6.40;;
13799;SDS011;6971;50.028;9.258;2023-08-01T03:20:20;7.33;;;5.47;;
13799;SDS011;6971;50.028;9.258;2023-08-01T03:25:23;7.67;;;5.97;;
13799;SDS011;6971;50.028;9.258;2023-08-01T03:30:24;10.90;;;5.67;;
13799;SDS011;6971;50.028;9.258;2023-08-01T03:35:25;11.30;;;6.23;;
13799;SDS011;6971;50.028;9.258;2023-08-01T03:40:26;7.37;;;5.83;;
13799;SDS011;6971;50.028;9.258;2023-08-01T03:45:27;7.70;;;5.80;;
13799;SDS011;6971;50.028;9.258;2023-08-01T03:50:28;6.80;;;5.00;;
13799;SDS011;6971;50.028;9.258;2023-08-01T03:55:29;6.97;;;5.17;;
13799;SDS011;6971;50.028;9.258;2023-08-01T04:00:29;6.63;;;5.10;;
13799;SDS011;6971;50.028;9.258;2023-08-01T04:05:34;4.33;;;3.93;;
13799;SDS011;6971;50.028;9.258;2023-08-01T04:10:35;5.80;;;4.20;;
13799;SDS011;6971;50.028;9.258;2023-08-01T04:15:36;6.77;;;4.27;;
13799;SDS011;6971;50.028;9.258;2023-08-01T04:20:37;5.17;;;4.30;;
13799;SDS011;6971;50.028;9.258;2023-08-01T04:25:39;5.67;;;4.23;;
13799;SDS011;6971;50.028;9.258;2023-08-01T04:30:41;6.93;;;4.57;;
13799;SDS011;6971;50.028;9.258;2023-08-01T04:35:42;5.27;;;3.97;;
13799;SDS011;6971;50.028;9.258;2023-08-01T04:40:42;7.80;;;4.43;;
13799;SDS011;6971;50.028;9.258;2023-08-01T04:45:45;5.70;;;3.80;;
13799;SDS011;6971;50.028;9.258;2023-08-01T04:50:45;7.47;;;4.50;;
13799;SDS011;6971;50.028;9.258;2023-08-01T04:55:45;5.60;;;4.13;;
13799;SDS011;6971;50.028;9.258;2023-08-01T05:00:47;4.30;;;3.57;;
13799;SDS011;6971;50.028;9.258;2023-08-01T05:05:47;8.03;;;5.20;;
13799;SDS011;6971;50.028;9.258;2023-08-01T05:10:48;5.37;;;4.33;;
13799;SDS011;6971;50.028;9.258;2023-08-01T05:15:48;7.77;;;4.93;;
13799;SDS011;6971;50.028;9.258;2023-08-01T05:20:48;5.50;;;4.77;;
13799;SDS011;6971;50.028;9.258;2023-08-01T05:25:49;13.37;;;5.67;;
13799;SDS011;6971;50.028;9.258;2023-08-01T05:30:49;10.47;;;6.37;;
13799;SDS011;6971;50.028;9.258;2023-08-01T05:35:50;7.83;;;5.20;;
13799;SDS011;6971;50.028;9.258;2023-08-01T05:40:50;6.17;;;4.73;;
13799;SDS011;6971;50.028;9.258;2023-08-01T05:45:51;10.13;;;4.87;;
13799;SDS011;6971;50.028;9.258;2023-08-01T05:50:52;9.10;;;4.50;;
13799;SDS011;6971;50.028;9.258;2023-08-01T05:55:55;5.83;;;4.20;;
13799;SDS011;6971;50.028;9.258;2023-08-01T06:00:56;4.97;;;3.90;;
13799;SDS011;6971;50.028;9.258;2023-08-01T06:05:57;4.10;;;3.13;;
13799;SDS011;6971;50.028;9.258;2023-08-01T06:10:58;4.20;;;3.70;;
13799;SDS011;6971;50.028;9.258;2023-08-01T06:15:58;3.80;;;3.20;;
13799;SDS011;6971;50.028;9.258;2023-08-01T06:20:59;7.00;;;3.67;;
13799;SDS011;6971;50.028;9.258;2023-08-01T06:26:00;4.57;;;3.43;;
13799;SDS011;6971;50.028;9.258;2023-08-01T06:31:03;4.30;;;2.93;;
13799;SDS011;6971;50.028;9.258;2023-08-01T06:36:04;3.73;;;2.60;;
13799;SDS011;6971;50.028;9.258;2023-08-01T06:41:05;5.10;;;2.90;;
13799;SDS011;6971;50.028;9.258;2023-08-01T06:46:06;4.17;;;2.83;;
13799;SDS011;6971;50.028;9.258;2023-08-01T06:51:08;3.17;;;2.20;;
13799;SDS011;6971;50.028;9.258;2023-08-01T06:56:08;3.77;;;2.80;;
13799;SDS011;6971;50.028;9.258;2023-08-01T07:01:09;7.07;;;2.70;;
13799;SDS011;6971;50.028;9.258;2023-08-01T07:06:09;4.90;;;2.33;;
13799;SDS011;6971;50.028;9.258;2023-08-01T07:11:11;3.53;;;2.80;;
13799;SDS011;6971;50.028;9.258;2023-08-01T07:16:11;4.87;;;2.90;;
13799;SDS011;6971;50.028;9.258;2023-08-01T07:21:12;3.13;;;2.60;;
13799;SDS011;6971;50.028;9.258;2023-08-01T07:26:12;2.83;;;2.60;;
13799;SDS011;6971;50.028;9.258;2023-08-01T07:31:13;2.77;;;2.50;;
13799;SDS011;6971;50.028;9.258;2023-08-01T07:36:13;3.73;;;2.73;;
13799;SDS011;6971;50.028;9.258;2023-08-01T07:41:14;5.17;;;3.00;;
13799;SDS011;6971;50.028;9.258;2023-08-01T07:46:15;3.90;;;2.63;;
13799;SDS011;6971;50.028;9.258;2023-08-01T07:51:16;2.70;;;1.70;;
13799;SDS011;6971;50.028;9.258;2023-08-01T07:56:16;2.53;;;1.60;;
13799;SDS011;6971;50.028;9.258;2023-08-01T08:01:17;1.77;;;1.37;;
13799;SDS011;6971;50.028;9.258;2023-08-01T08:06:17;2.17;;;1.20;;
13799;SDS011;6971;50.028;9.258;2023-08-01T08:11:19;1.30;;;1.20;;
13799;SDS011;6971;50.028;9.258;2023-08-01T08:16:19;1.77;;;1.00;;
13799;SDS011;6971;50.028;9.258;2023-08-01T08:21:20;3.73;;;1.00;;
13799;SDS011;6971;50.028;9.258;2023-08-01T08:26:20;0.90;;;0.90;;
13799;SDS011;6971;50.028;9.258;2023-08-01T08:31:22;1.30;;;1.20;;
13799;SDS011;6971;50.028;9.258;2023-08-01T08:36:23;2.20;;;1.30;;
13799;SDS011;6971;50.028;9.258;2023-08-01T08:41:26;3.60;;;1.53;;
13799;SDS011;6971;50.028;9.258;2023-08-01T08:46:28;1.67;;;1.50;;
13799;SDS011;6971;50.028;9.258;2023-08-01T08:51:30;1.80;;;1.43;;
13799;SDS011;6971;50.028;9.258;2023-08-01T08:56:32;2.37;;;1.93;;
13799;SDS011;6971;50.028;9.258;2023-08-01T09:01:34;2.70;;;1.90;;
13799;SDS011;6971;50.028;9.258;2023-08-01T09:06:37;3.50;;;2.17;;
13799;SDS011;6971;50.028;9.258;2023-08-01T09:11:48;3.13;;;1.93;;
13799;SDS011;6971;50.028;9.258;2023-08-01T09:16:50;3.53;;;2.13;;
13799;SDS011;6971;50.028;9.258;2023-08-01T09:21:51;2.20;;;1.87;;
13799;SDS011;6971;50.028;9.258;2023-08-01T09:26:51;3.63;;;3.33;;
13799;SDS011;6971;50.028;9.258;2023-08-01T09:31:52;3.33;;;1.87;;
13799;SDS011;6971;50.028;9.258;2023-08-01T09:36:58;2.93;;;2.20;;
13799;SDS011;6971;50.028;9.258;2023-08-01T09:42:01;2.97;;;2.10;;
13799;SDS011;6971;50.028;9.258;2023-08-01T09:47:03;3.83;;;2.23;;
13799;SDS011;6971;50.028;9.258;2023-08-01T09:52:11;3.53;;;2.23;;
13799;SDS011;6971;50.028;9.258;2023-08-01T09:57:12;2.00;;;1.80;;
13799;SDS011;6971;50.028;9.258;2023-08-01T10:02:15;2.10;;;1.90;;
13799;SDS011;6971;50.028;9.258;2023-08-01T10:07:21;2.20;;;1.50;;
13799;SDS011;6971;50.028;9.258;2023-08-01T10:12:26;3.33;;;2.33;;
13799;SDS011;6971;50.028;9.258;2023-08-01T10:17:28;1.83;;;1.60;;
13799;SDS011;6971;50.028;9.258;2023-08-01T10:22:29;2.47;;;1.80;;
13799;SDS011;6971;50.028;9.258;2023-08-01T10:27:34;3.07;;;1.80;;
13799;SDS011;6971;50.028;9.258;2023-08-01T10:32:37;3.30;;;1.70;;
13799;SDS011;6971;50.028;9.258;2023-08-01T10:37:42;4.60;;;1.90;;
13799;SDS011;6971;50.028;9.258;2023-08-01T10:42:48;3.77;;;1.87;;
13799;SDS011;6971;50.028;9.258;2023-08-01T10:47:50;4.17;;;1.87;;
13799;SDS011;6971;50.028;9.258;2023-08-01T10:52:51;2.43;;;1.70;;
13799;SDS011;6971;50.028;9.258;2023-08-01T10:58:03;1.50;;;1.37;;
13799;SDS011;6971;50.028;9.258;2023-08-01T11:03:05;4.30;;;1.30;;
13799;SDS011;6971;50.028;9.258;2023-08-01T11:08:06;2.00;;;1.80;;
13799;SDS011;6971;50.028;9.258;2023-08-01T11:13:10;2.43;;;1.70;;
13799;SDS011;6971;50.028;9.258;2023-08-01T11:18:12;3.30;;;1.37;;
13799;SDS011;6971;50.028;9.258;2023-08-01T11:23:12;2.90;;;1.80;;
13799;SDS011;6971;50.028;9.258;2023-08-01T11:28:16;4.47;;;1.40;;
13799;SDS011;6971;50.028;9.258;2023-08-01T11:33:18;2.40;;;1.40;;
13799;SDS011;6971;50.028;9.258;2023-08-01T11:38:22;5.17;;;3.40;;
13799;SDS011;6971;50.028;9.258;2023-08-01T11:43:26;2.40;;;2.07;;
13799;SDS011;6971;50.028;9.258;2023-08-01T11:48:26;2.27;;;1.60;;
13799;SDS011;6971;50.028;9.258;2023-08-01T11:53:28;2.90;;;2.60;;
13799;SDS011;6971;50.028;9.258;2023-08-01T11:58:37;2.27;;;1.80;;
13799;SDS011;6971;50.028;9.258;2023-08-01T12:03:45;2.53;;;1.50;;
13799;SDS011;6971;50.028;9.258;2023-08-01T12:08:51;4.20;;;1.97;;
13799;SDS011;6971;50.028;9.258;2023-08-01T12:19:03;2.47;;;1.63;;
13799;SDS011;6971;50.028;9.258;2023-08-01T12:24:04;2.20;;;1.60;;
13799;SDS011;6971;50.028;9.258;2023-08-01T12:29:04;2.23;;;1.80;;
13799;SDS011;6971;50.028;9.258;2023-08-01T12:34:05;4.63;;;1.70;;
13799;SDS011;6971;50.028;9.258;2023-08-01T12:39:06;2.17;;;1.60;;
13799;SDS011;6971;50.028;9.258;2023-08-01T12:44:11;2.40;;;1.70;;
13799;SDS011;6971;50.028;9.258;2023-08-01T12:49:17;2.33;;;1.60;;
13799;SDS011;6971;50.028;9.258;2023-08-01T12:54:18;2.50;;;1.87;;
13799;SDS011;6971;50.028;9.258;2023-08-01T12:59:18;3.30;;;1.53;;
13799;SDS011;6971;50.028;9.258;2023-08-01T13:04:19;3.53;;;2.10;;
13799;SDS011;6971;50.028;9.258;2023-08-01T13:09:21;2.70;;;1.90;;
13799;SDS011;6971;50.028;9.258;2023-08-01T13:14:21;2.13;;;1.77;;
13799;SDS011;6971;50.028;9.258;2023-08-01T13:19:23;2.67;;;2.00;;
13799;SDS011;6971;50.028;9.258;2023-08-01T13:24:24;2.93;;;1.87;;
13799;SDS011;6971;50.028;9.258;2023-08-01T13:29:26;3.53;;;1.77;;
13799;SDS011;6971;50.028;9.258;2023-08-01T13:34:26;4.20;;;1.93;;
13799;SDS011;6971;50.028;9.258;2023-08-01T13:39:27;2.50;;;2.03;;
13799;SDS011;6971;50.028;9.258;2023-08-01T13:44:28;2.80;;;2.20;;
13799;SDS011;6971;50.028;9.258;2023-08-01T13:49:29;2.40;;;2.00;;
13799;SDS011;6971;50.028;9.258;2023-08-01T13:54:30;3.97;;;2.20;;
13799;SDS011;6971;50.028;9.258;2023-08-01T13:59:32;3.93;;;1.70;;
13799;SDS011;6971;50.028;9.258;2023-08-01T14:04:33;2.47;;;1.90;;
13799;SDS011;6971;50.028;9.258;2023-08-01T14:09:35;3.93;;;2.07;;
13799;SDS011;6971;50.028;9.258;2023-08-01T14:14:37;5.63;;;1.87;;
13799;SDS011;6971;50.028;9.258;2023-08-01T14:19:38;2.50;;;2.03;;
13799;SDS011;6971;50.028;9.258;2023-08-01T14:24:39;4.03;;;2.23;;
13799;SDS011;6971;50.028;9.258;2023-08-01T14:29:40;4.03;;;2.30;;
13799;SDS011;6971;50.028;9.258;2023-08-01T14:34:41;5.20;;;2.60;;
13799;SDS011;6971;50.028;9.258;2023-08-01T14:39:41;4.50;;;2.27;;
13799;SDS011;6971;50.028;9.258;2023-08-01T14:44:42;2.97;;;2.13;;
13799;SDS011;6971;50.028;9.258;2023-08-01T14:49:44;2.83;;;1.90;;
13799;SDS011;6971;50.028;9.258;2023-08-01T14:54:45;4.33;;;2.53;;
13799;SDS011;6971;50.028;9.258;2023-08-01T14:59:46;4.50;;;2.30;;
13799;SDS011;6971;50.028;9.258;2023-08-01T15:04:53;3.77;;;2.50;;
13799;SDS011;6971;50.028;9.258;2023-08-01T15:09:56;4.93;;;2.70;;
13799;SDS011;6971;50.028;9.258;2023-08-01T15:14:57;7.30;;;2.83;;
13799;SDS011;6971;50.028;9.258;2023-08-01T15:19:57;5.27;;;3.17;;
13799;SDS011;6971;50.028;9.258;2023-08-01T15:24:58;4.57;;;2.73;;
13799;SDS011;6971;50.028;9.258;2023-08-01T15:29:59;4.53;;;2.60;;
13799;SDS011;6971;50.028;9.258;2023-08-01T15:35:00;7.43;;;2.50;;
13799;SDS011;6971;50.028;9.258;2023-08-01T15:40:00;3.97;;;2.53;;
13799;SDS011;6971;50.028;9.258;2023-08-01T15:45:01;4.97;;;2.40;;
13799;SDS011;6971;50.028;9.258;2023-08-01T15:50:01;3.67;;;2.37;;
13799;SDS011;6971;50.028;9.258;2023-08-01T15:55:02;4.97;;;2.67;;
13799;SDS011;6971;50.028;9.258;2023-08-01T16:00:03;4.43;;;2.37;;
13799;SDS011;6971;50.028;9.258;2023-08-01T16:05:04;7.73;;;2.37;;
13799;SDS011;6971;50.028;9.258;2023-08-01T16:10:06;3.33;;;2.23;;
13799;SDS011;6971;50.028;9.258;2023-08-01T16:15:07;5.93;;;1.97;;
13799;SDS011;6971;50.028;9.258;2023-08-01T16:20:08;4.50;;;2.13;;
13799;SDS011;6971;50.028;9.258;2023-08-01T16:25:09;3.93;;;2.30;;
13799;SDS011;6971;50.028;9.258;2023-08-01T16:30:10;4.53;;;1.83;;
13799;SDS011;6971;50.028;9.258;2023-08-01T16:35:13;2.90;;;2.20;;
13799;SDS011;6971;50.028;9.258;2023-08-01T16:40:14;2.97;;;2.00;;
13799;SDS011;6971;50.028;9.258;2023-08-01T16:45:15;3.57;;;2.30;;
13799;SDS011;6971;50.028;9.258;2023-08-01T16:50:16;5.77;;;3.10;;
13799;SDS011;6971;50.028;9.258;2023-08-01T16:55:18;5.07;;;2.83;;
13799;SDS011;6971;50.028;9.258;2023-08-01T17:00:19;5.70;;;2.90;;
13799;SDS011;6971;50.028;9.258;2023-08-01T17:05:21;3.57;;;2.40;;
13799;SDS011;6971;50.028;9.258;2023-08-01T17:10:22;5.03;;;2.70;;
13799;SDS011;6971;50.028;9.258;2023-08-01T17:15:22;7.67;;;2.27;;
13799;SDS011;6971;50.028;9.258;2023-08-01T17:20:23;2.57;;;2.20;;
13799;SDS011;6971;50.028;9.258;2023-08-01T17:25:24;2.73;;;2.30;;
13799;SDS011;6971;50.028;9.258;2023-08-01T17:30:25;6.73;;;2.43;;
13799;SDS011;6971;50.028;9.258;2023-08-01T17:35:26;3.50;;;2.30;;
13799;SDS011;6971;50.028;9.258;2023-08-01T17:40:27;3.60;;;2.23;;
13799;SDS011;6971;50.028;9.258;2023-08-01T17:45:27;2.80;;;1.90;;
13799;SDS011;6971;50.028;9.258;2023-08-01T17:50:28;4.27;;;1.80;;
13799;SDS011;6971;50.028;9.258;2023-08-01T17:55:29;4.27;;;1.93;;
13799;SDS011;6971;50.028;9.258;2023-08-01T18:00:29;2.73;;;1.87;;
13799;SDS011;6971;50.028;9.258;2023-08-01T18:05:30;3.90;;;2.10;;
13799;SDS011;6971;50.028;9.258;2023-08-01T18:10:36;3.13;;;2.40;;
13799;SDS011;6971;50.028;9.258;2023-08-01T18:15:37;4.57;;;2.23;;
13799;SDS011;6971;50.028;9.258;2023-08-01T18:20:38;6.43;;;3.63;;
13799;SDS011;6971;50.028;9.258;2023-08-01T18:25:40;3.23;;;2.07;;
13799;SDS011;6971;50.028;9.258;2023-08-01T18:30:40;3.50;;;2.47;;
13799;SDS011;6971;50.028;9.258;2023-08-01T18:35:41;3.43;;;2.10;;
13799;SDS011;6971;50.028;9.258;2023-08-01T18:40:43;4.20;;;2.80;;
13799;SDS011;6971;50.028;9.258;2023-08-01T18:45:54;5.90;;;2.23;;
13799;SDS011;6971;50.028;9.258;2023-08-01T18:50:56;2.93;;;2.10;;
13799;SDS011;6971;50.028;9.258;2023-08-01T18:56:07;4.87;;;2.63;;
13799;SDS011;6971;50.028;9.258;2023-08-01T19:01:20;5.30;;;2.07;;
13799;SDS011;6971;50.028;9.258;2023-08-01T19:06:23;3.37;;;1.60;;
13799;SDS011;6971;50.028;9.258;2023-08-01T19:11:25;3.10;;;1.70;;
13799;SDS011;6971;50.028;9.258;2023-08-01T19:16:32;3.63;;;2.30;;
13799;SDS011;6971;50.028;9.258;2023-08-01T19:21:32;3.73;;;1.60;;
13799;SDS011;6971;50.028;9.258;2023-08-01T19:26:33;2.53;;;1.53;;
13799;SDS011;6971;50.028;9.258;2023-08-01T19:31:34;3.37;;;1.73;;
13799;SDS011;6971;50.028;9.258;2023-08-01T19:36:35;4.17;;;1.70;;
13799;SDS011;6971;50.028;9.258;2023-08-01T19:41:36;3.90;;;1.80;;
13799;SDS011;6971;50.028;9.258;2023-08-01T19:46:36;2.90;;;1.90;;
13799;SDS011;6971;50.028;9.258;2023-08-01T19:51:37;2.67;;;1.67;;
13799;SDS011;6971;50.028;9.258;2023-08-01T19:56:37;4.43;;;1.80;;
13799;SDS011;6971;50.028;9.258;2023-08-01T20:01:38;4.33;;;1.77;;
13799;SDS011;6971;50.028;9.258;2023-08-01T20:06:39;2.73;;;1.80;;
13799;SDS011;6971;50.028;9.258;2023-08-01T20:11:40;4.87;;;2.20;;
13799;SDS011;6971;50.028;9.258;2023-08-01T20:16:41;3.17;;;2.10;;
13799;SDS011;6971;50.028;9.258;2023-08-01T20:21:42;5.97;;;1.77;;
13799;SDS011;6971;50.028;9.258;2023-08-01T20:26:43;4.40;;;2.07;;
13799;SDS011;6971;50.028;9.258;2023-08-01T20:31:44;6.27;;;2.17;;
13799;SDS011;6971;50.028;9.258;2023-08-01T20:36:45;4.73;;;2.30;;
13799;SDS011;6971;50.028;9.258;2023-08-01T20:41:46;7.77;;;2.37;;
13799;SDS011;6971;50.028;9.258;2023-08-01T20:46:47;4.80;;;1.97;;
13799;SDS011;6971;50.028;9.258;2023-08-01T20:51:47;5.37;;;2.53;;
13799;SDS011;6971;50.028;9.258;2023-08-01T20:56:48;6.37;;;2.87;;
13799;SDS011;6971;50.028;9.258;2023-08-01T21:01:48;4.30;;;2.47;;
13799;SDS011;6971;50.028;9.258;2023-08-01T21:06:50;4.60;;;2.37;;
13799;SDS011;6971;50.028;9.258;2023-08-01T21:11:51;5.23;;;2.53;;
13799;SDS011;6971;50.028;9.258;2023-08-01T21:16:51;5.37;;;2.23;;
13799;SDS011;6971;50.028;9.258;2023-08-01T21:21:52;6.57;;;2.87;;
13799;SDS011;6971;50.028;9.258;2023-08-01T21:26:53;6.97;;;2.40;;
13799;SDS011;6971;50.028;9.258;2023-08-01T21:31:53;5.60;;;2.33;;
13799;SDS011;6971;50.028;9.258;2023-08-01T21:36:54;7.77;;;2.80;;
13799;SDS011;6971;50.028;9.258;2023-08-01T21:41:55;6.37;;;2.50;;
13799;SDS011;6971;50.028;9.258;2023-08-01T21:46:55;7.03;;;2.70;;
13799;SDS011;6971;50.028;9.258;2023-08-01T21:51:56;4.63;;;2.47;;
13799;SDS011;6971;50.028;9.258;2023-08-01T21:56:57;3.93;;;2.80;;
13799;SDS011;6971;50.028;9.258;2023-08-01T22:01:57;6.93;;;2.73;;
13799;SDS011;6971;50.028;9.258;2023-08-01T22:06:57;6.93;;;2.53;;
13799;SDS011;6971;50.028;9.258;2023-08-01T22:11:59;6.50;;;2.70;;
13799;SDS011;6971;50.028;9.258;2023-08-01T22:16:59;7.90;;;3.00;;
13799;SDS011;6971;50.028;9.258;2023-08-01T22:22:00;4.20;;;2.80;;
13799;SDS011;6971;50.028;9.258;2023-08-01T22:27:01;6.67;;;3.33;;
13799;SDS011;6971;50.028;9.258;2023-08-01T22:32:02;7.83;;;3.50;;
13799;SDS011;6971;50.028;9.258;2023-08-01T22:37:02;7.90;;;3.80;;
13799;SDS011;6971;50.028;9.258;2023-08-01T22:42:03;6.60;;;3.97;;
13799;SDS011;6971;50.028;9.258;2023-08-01T22:47:04;6.33;;;3.67;;
13799;SDS011;6971;50.028;9.258;2023-08-01T22:52:05;5.77;;;3.50;;
13799;SDS011;6971;50.028;9.258;2023-08-01T22:57:06;8.20;;;3.40;;
13799;SDS011;6971;50.028;9.258;2023-08-01T23:02:07;8.60;;;3.83;;
13799;SDS011;6971;50.028;9.258;2023-08-01T23:07:07;6.43;;;3.97;;
13799;SDS011;6971;50.028;9.258;2023-08-01T23:12:08;10.93;;;3.60;;
13799;SDS011;6971;50.028;9.258;2023-08-01T23:17:09;6.50;;;3.53;;
13799;SDS011;6971;50.028;9.258;2023-08-01T23:22:10;7.53;;;4.03;;
13799;SDS011;6971;50.028;9.258;2023-08-01T23:27:11;8.27;;;3.53;;
13799;SDS011;6971;50.028;9.258;2023-08-01T23:32:11;8.27;;;3.80;;
13799;SDS011;6971;50.028;9.258;2023-08-01T23:37:12;5.37;;;3.47;;
13799;SDS011;6971;50.028;9.258;2023-08-01T23:42:12;8.10;;;3.60;;
13799;SDS011;6971;50.028;9.258;2023-08-01T23:47:13;11.00;;;3.27;;
13799;SDS011;6971;50.028;9.258;2023-08-01T23:52:14;7.17;;;3.60;;
13799;SDS011;6971;50.028;9.258;2023-08-01T23:57:14;4.83;;;4.00;;
